Entre Rios de Minas, Brazil
Current Conditions -  °F | °C
As of 9:00 AM on Friday 28 Nov 2014 (Local Time) from SBBQ Reporting Station
Overcast Overcast  
Wind Chill: 68°   Ceiling: 900
Heat Index: 68°   Visibility: 5mi
Dew Point: 63°   Wind: 5mph
Humidity: 83%   Direction: 80°E
Pressure: 30.12"   Gusts: NA
Location:  20.67°S, 44.07°W
Report Text: SBBQ 281100Z 08004KT 8000 BKN009 OVC100 20/17 Q1020
Loading
Personal Weather Stations






























Interactive Weather Map New forecast layout! Learn more

10-Day Weather Forecast

Advertisements
Track Severe Weather on mobile